Weather at Kosti Airport [CLOSED]

Public forecast

Using degrees Celsius for public forecast. Weather courtesy of forecast.io.

Closest aviation weather report (METAR) to Kosti Airport

Report is more than 6 hours old.

Closest report is El Obeid Airport, 146.2 nm (270.7 km) W.

2022/11/13 14:00 (retrieved 2 years ago)

HSOB 131400Z 05013KT CAVOK 32/00 Q1013

Closest aviation forecast (TAF) to Kosti Airport

Forecast is more than 12 hours old.

Closest forecast is Gondar Airport, 278.0 nm (514.9 km) E.

2023/02/22 18:20 (retrieved 1 year ago)

TAF HAGN 221530Z 2218/2324 VRB05KT CAVOK